Time,TemperatureF,DewpointF,PressureIn,WindDirection,WindDirectionDegrees,WindSpeedMPH,WindSpeedGustMPH,Humidity,HourlyPrecipIn,Conditions,Clouds,dailyrainin,SoftwareType,DateUTC
2013-08-16 00:00:00,62.0,59.0,-100.00,North,-999,-999.0,-999.0,88,0.00,,,-99.99,,2013-08-16 07:00:00,
2013-08-16 00:42:00,62.0,59.0,-100.00,North,-999,-999.0,-999.0,88,0.00,,,-99.99,,2013-08-16 07:42:00,
2013-08-16 00:52:00,62.0,59.0,-100.00,North,-999,-999.0,-999.0,88,0.00,,,-99.99,,2013-08-16 07:52:00,
2013-08-16 01:00:00,61.0,58.0,-100.00,North,-999,-999.0,-999.0,91,0.00,,,-99.99,,2013-08-16 08:00:00,
2013-08-16 01:42:00,61.0,58.0,-100.00,North,-999,-999.0,-999.0,91,0.00,,,-99.99,,2013-08-16 08:42:00,
2013-08-16 01:52:00,61.0,58.0,-100.00,North,-999,-999.0,-999.0,91,0.00,,,-99.99,,2013-08-16 08:52:00,
2013-08-16 02:00:00,59.0,57.0,-100.00,North,-999,-999.0,-999.0,92,0.00,,,-99.99,,2013-08-16 09:00:00,
2013-08-16 02:42:00,59.0,57.0,-100.00,North,-999,-999.0,-999.0,92,0.00,,,-99.99,,2013-08-16 09:42:00,
2013-08-16 02:53:00,59.0,57.0,-100.00,North,-999,-999.0,-999.0,92,0.00,,,-99.99,,2013-08-16 09:53:00,
2013-08-16 03:00:00,58.0,56.0,-100.00,North,-999,-999.0,-999.0,93,0.00,,,-99.99,,2013-08-16 10:00:00,
2013-08-16 03:42:00,58.0,56.0,-100.00,North,-999,-999.0,-999.0,93,0.00,,,-99.99,,2013-08-16 10:42:00,
2013-08-16 03:52:00,58.0,56.0,-100.00,North,-999,-999.0,-999.0,93,0.00,,,-99.99,,2013-08-16 10:52:00,
2013-08-16 04:00:00,58.0,56.0,-100.00,North,-999,-999.0,-999.0,94,0.00,,,-99.99,,2013-08-16 11:00:00,
2013-08-16 04:42:00,58.0,56.0,-100.00,North,-999,-999.0,-999.0,94,0.00,,,-99.99,,2013-08-16 11:42:00,
2013-08-16 04:52:00,58.0,56.0,-100.00,North,-999,-999.0,-999.0,94,0.00,,,-99.99,,2013-08-16 11:52:00,
2013-08-16 05:00:00,57.0,56.0,-100.00,North,-999,-999.0,-999.0,94,0.00,,,-99.99,,2013-08-16 12:00:00,
2013-08-16 05:42:00,57.0,56.0,-100.00,North,-999,-999.0,-999.0,94,0.00,,,-99.99,,2013-08-16 12:42:00,
2013-08-16 05:52:00,57.0,56.0,-100.00,North,-999,-999.0,-999.0,94,0.00,,,-99.99,,2013-08-16 12:52:00,
2013-08-16 06:00:00,58.0,57.0,-100.00,North,-999,-999.0,-999.0,95,0.00,,,-99.99,,2013-08-16 13:00:00,
2013-08-16 06:42:00,58.0,57.0,-100.00,North,-999,-999.0,-999.0,95,0.00,,,-99.99,,2013-08-16 13:42:00,
2013-08-16 06:53:00,58.0,57.0,-100.00,North,-999,-999.0,-999.0,95,0.00,,,-99.99,,2013-08-16 13:53:00,
2013-08-16 07:00:00,58.0,57.0,-100.00,North,-999,-999.0,-999.0,97,0.00,,,-99.99,,2013-08-16 14:00:00,
2013-08-16 07:42:00,58.0,57.0,-100.00,North,-999,-999.0,-999.0,97,0.00,,,-99.99,,2013-08-16 14:42:00,
2013-08-16 07:52:00,58.0,57.0,-100.00,North,-999,-999.0,-999.0,97,0.00,,,-99.99,,2013-08-16 14:52:00,
2013-08-16 08:00:00,59.0,57.0,-100.00,North,-999,-999.0,-999.0,93,0.00,,,-99.99,,2013-08-16 15:00:00,
2013-08-16 08:43:00,59.0,57.0,-100.00,North,-999,-999.0,-999.0,93,0.00,,,-99.99,,2013-08-16 15:43:00,
2013-08-16 08:56:00,59.0,57.0,-100.00,North,-999,-999.0,-999.0,93,0.00,,,-99.99,,2013-08-16 15:56:00,
2013-08-16 09:00:00,66.0,59.0,-100.00,North,-999,-999.0,-999.0,78,0.00,,,-99.99,,2013-08-16 16:00:00,
2013-08-16 09:44:00,66.0,59.0,-100.00,North,-999,-999.0,-999.0,78,0.00,,,-99.99,,2013-08-16 16:44:00,
2013-08-16 09:57:00,66.0,59.0,-100.00,North,-999,-999.0,-999.0,78,0.00,,,-99.99,,2013-08-16 16:57:00,
2013-08-16 10:00:00,73.0,62.0,-100.00,North,-999,-999.0,-999.0,67,0.00,,,-99.99,,2013-08-16 17:00:00,
2013-08-16 10:47:00,73.0,62.0,-100.00,North,-999,-999.0,-999.0,67,0.00,,,-99.99,,2013-08-16 17:47:00,
2013-08-16 11:00:00,79.0,63.0,-100.00,North,-999,-999.0,-999.0,58,0.00,,,-99.99,,2013-08-16 18:00:00,
2013-08-16 11:55:00,79.0,63.0,-100.00,North,-999,-999.0,-999.0,58,0.00,,,-99.99,,2013-08-16 18:55:00,
2013-08-16 12:00:00,84.0,62.0,-100.00,North,-999,-999.0,-999.0,47,0.00,,,-99.99,,2013-08-16 19:00:00,
2013-08-16 12:46:00,84.0,62.0,-100.00,North,-999,-999.0,-999.0,47,0.00,,,-99.99,,2013-08-16 19:46:00,
2013-08-16 12:55:00,84.0,62.0,-100.00,North,-999,-999.0,-999.0,47,0.00,,,-99.99,,2013-08-16 19:55:00,
2013-08-16 13:00:00,87.0,60.0,-100.00,North,-999,-999.0,-999.0,40,0.00,,,-99.99,,2013-08-16 20:00:00,
2013-08-16 13:44:00,87.0,60.0,-100.00,North,-999,-999.0,-999.0,40,0.00,,,-99.99,,2013-08-16 20:44:00,
2013-08-16 13:52:00,87.0,60.0,-100.00,North,-999,-999.0,-999.0,40,0.00,,,-99.99,,2013-08-16 20:52:00,
2013-08-16 14:00:00,87.0,59.0,-100.00,North,-999,-999.0,-999.0,38,0.00,,,-99.99,,2013-08-16 21:00:00,
2013-08-16 14:43:00,87.0,59.0,-100.00,North,-999,-999.0,-999.0,38,0.00,,,-99.99,,2013-08-16 21:43:00,
2013-08-16 14:53:00,87.0,59.0,-100.00,North,-999,-999.0,-999.0,38,0.00,,,-99.99,,2013-08-16 21:53:00,
2013-08-16 15:00:00,86.0,58.0,-100.00,North,-999,-999.0,-999.0,39,0.00,,,-99.99,,2013-08-16 22:00:00,
2013-08-16 15:43:00,86.0,58.0,-100.00,North,-999,-999.0,-999.0,39,0.00,,,-99.99,,2013-08-16 22:43:00,
2013-08-16 15:52:00,86.0,58.0,-100.00,North,-999,-999.0,-999.0,39,0.00,,,-99.99,,2013-08-16 22:52:00,
2013-08-16 16:00:00,83.0,58.0,-100.00,North,-999,-999.0,-999.0,43,0.00,,,-99.99,,2013-08-16 23:00:00,
2013-08-16 16:42:00,83.0,58.0,-100.00,North,-999,-999.0,-999.0,43,0.00,,,-99.99,,2013-08-16 23:42:00,
2013-08-16 16:52:00,83.0,58.0,-100.00,North,-999,-999.0,-999.0,43,0.00,,,-99.99,,2013-08-16 23:52:00,
2013-08-16 17:00:00,81.0,58.0,-100.00,North,-999,-999.0,-999.0,44,0.00,,,-99.99,,2013-08-17 00:00:00,
2013-08-16 17:42:00,81.0,58.0,-100.00,North,-999,-999.0,-999.0,44,0.00,,,-99.99,,2013-08-17 00:42:00,
2013-08-16 17:52:00,81.0,58.0,-100.00,North,-999,-999.0,-999.0,44,0.00,,,-99.99,,2013-08-17 00:52:00,
2013-08-16 18:00:00,78.0,57.0,-100.00,North,-999,-999.0,-999.0,48,0.00,,,-99.99,,2013-08-17 01:00:00,
2013-08-16 18:42:00,78.0,57.0,-100.00,North,-999,-999.0,-999.0,48,0.00,,,-99.99,,2013-08-17 01:42:00,
2013-08-16 18:52:00,78.0,57.0,-100.00,North,-999,-999.0,-999.0,48,0.00,,,-99.99,,2013-08-17 01:52:00,
2013-08-16 19:00:00,73.0,58.0,-100.00,North,-999,-999.0,-999.0,58,0.00,,,-99.99,,2013-08-17 02:00:00,
2013-08-16 19:42:00,73.0,58.0,-100.00,North,-999,-999.0,-999.0,58,0.00,,,-99.99,,2013-08-17 02:42:00,
2013-08-16 19:52:00,73.0,58.0,-100.00,North,-999,-999.0,-999.0,58,0.00,,,-99.99,,2013-08-17 02:52:00,
2013-08-16 20:00:00,69.0,58.0,-100.00,North,-999,-999.0,-999.0,66,0.00,,,-99.99,,2013-08-17 03:00:00,
2013-08-16 20:43:00,69.0,58.0,-100.00,North,-999,-999.0,-999.0,66,0.00,,,-99.99,,2013-08-17 03:43:00,
2013-08-16 20:53:00,69.0,58.0,-100.00,North,-999,-999.0,-999.0,66,0.00,,,-99.99,,2013-08-17 03:53:00,
2013-08-16 21:00:00,65.0,57.0,-100.00,North,-999,-999.0,-999.0,75,0.00,,,-99.99,,2013-08-17 04:00:00,
2013-08-16 21:44:00,65.0,57.0,-100.00,North,-999,-999.0,-999.0,75,0.00,,,-99.99,,2013-08-17 04:44:00,
2013-08-16 21:53:00,65.0,57.0,-100.00,North,-999,-999.0,-999.0,75,0.00,,,-99.99,,2013-08-17 04:53:00,
2013-08-16 22:00:00,62.0,56.0,-100.00,North,-999,-999.0,-999.0,81,0.00,,,-99.99,,2013-08-17 05:00:00,
2013-08-16 22:42:00,62.0,56.0,-100.00,North,-999,-999.0,-999.0,81,0.00,,,-99.99,,2013-08-17 05:42:00,
2013-08-16 22:52:00,62.0,56.0,-100.00,North,-999,-999.0,-999.0,81,0.00,,,-99.99,,2013-08-17 05:52:00,
2013-08-16 23:00:00,60.0,56.0,-100.00,North,-999,-999.0,-999.0,85,0.00,,,-99.99,,2013-08-17 06:00:00,
2013-08-16 23:42:00,60.0,56.0,-100.00,North,-999,-999.0,-999.0,85,0.00,,,-99.99,,2013-08-17 06:42:00,
2013-08-16 23:52:00,60.0,56.0,-100.00,North,-999,-999.0,-999.0,85,0.00,,,-99.99,,2013-08-17 06:52:00,